sensor_id;sensor_type;location;lat;lon;timestamp;P1;durP1;ratioP1;P2;durP2;ratioP2
43640;SDS011;72791;52.546;13.570;2024-01-30T00:01:52;17.30;;;7.97;;
43640;SDS011;72791;52.546;13.570;2024-01-30T00:04:18;14.80;;;7.57;;
43640;SDS011;72791;52.546;13.570;2024-01-30T00:06:44;15.95;;;8.10;;
43640;SDS011;72791;52.546;13.570;2024-01-30T00:09:09;13.95;;;7.60;;
43640;SDS011;72791;52.546;13.570;2024-01-30T00:11:36;16.98;;;7.90;;
43640;SDS011;72791;52.546;13.570;2024-01-30T00:14:02;18.00;;;7.80;;
43640;SDS011;72791;52.546;13.570;2024-01-30T00:16:31;14.07;;;7.72;;
43640;SDS011;72791;52.546;13.570;2024-01-30T00:18:57;13.15;;;7.15;;
43640;SDS011;72791;52.546;13.570;2024-01-30T00:21:23;13.88;;;7.53;;
43640;SDS011;72791;52.546;13.570;2024-01-30T00:23:48;13.80;;;7.90;;
43640;SDS011;72791;52.546;13.570;2024-01-30T00:26:14;13.93;;;8.13;;
43640;SDS011;72791;52.546;13.570;2024-01-30T00:28:42;13.93;;;8.85;;
43640;SDS011;72791;52.546;13.570;2024-01-30T00:31:08;17.05;;;8.88;;
43640;SDS011;72791;52.546;13.570;2024-01-30T00:33:39;12.68;;;7.55;;
43640;SDS011;72791;52.546;13.570;2024-01-30T00:36:05;14.73;;;8.07;;
43640;SDS011;72791;52.546;13.570;2024-01-30T00:38:34;16.83;;;8.13;;
43640;SDS011;72791;52.546;13.570;2024-01-30T00:41:00;17.25;;;8.50;;
43640;SDS011;72791;52.546;13.570;2024-01-30T00:43:33;13.50;;;7.63;;
43640;SDS011;72791;52.546;13.570;2024-01-30T00:46:01;23.23;;;7.85;;
43640;SDS011;72791;52.546;13.570;2024-01-30T00:48:28;14.80;;;8.20;;
43640;SDS011;72791;52.546;13.570;2024-01-30T00:50:54;20.45;;;8.40;;
43640;SDS011;72791;52.546;13.570;2024-01-30T00:53:20;15.07;;;8.60;;
43640;SDS011;72791;52.546;13.570;2024-01-30T00:55:48;16.92;;;7.78;;
43640;SDS011;72791;52.546;13.570;2024-01-30T00:58:15;14.50;;;7.78;;
43640;SDS011;72791;52.546;13.570;2024-01-30T01:00:41;15.20;;;8.85;;
43640;SDS011;72791;52.546;13.570;2024-01-30T01:03:09;16.65;;;8.05;;
43640;SDS011;72791;52.546;13.570;2024-01-30T01:05:35;15.10;;;8.40;;
43640;SDS011;72791;52.546;13.570;2024-01-30T01:08:01;18.02;;;7.85;;
43640;SDS011;72791;52.546;13.570;2024-01-30T01:10:28;16.38;;;8.15;;
43640;SDS011;72791;52.546;13.570;2024-01-30T01:12:53;14.32;;;8.00;;
43640;SDS011;72791;52.546;13.570;2024-01-30T01:15:20;16.58;;;8.00;;
43640;SDS011;72791;52.546;13.570;2024-01-30T01:17:47;16.40;;;8.30;;
43640;SDS011;72791;52.546;13.570;2024-01-30T01:20:13;14.00;;;7.80;;
43640;SDS011;72791;52.546;13.570;2024-01-30T01:22:40;16.23;;;7.72;;
43640;SDS011;72791;52.546;13.570;2024-01-30T01:25:06;15.23;;;7.95;;
43640;SDS011;72791;52.546;13.570;2024-01-30T01:27:33;15.93;;;8.45;;
43640;SDS011;72791;52.546;13.570;2024-01-30T01:30:00;15.63;;;7.80;;
43640;SDS011;72791;52.546;13.570;2024-01-30T01:32:26;15.63;;;8.48;;
43640;SDS011;72791;52.546;13.570;2024-01-30T01:34:51;21.38;;;8.68;;
43640;SDS011;72791;52.546;13.570;2024-01-30T01:37:17;21.95;;;8.73;;
43640;SDS011;72791;52.546;13.570;2024-01-30T01:39:47;15.80;;;8.52;;
43640;SDS011;72791;52.546;13.570;2024-01-30T01:42:12;16.17;;;9.23;;
43640;SDS011;72791;52.546;13.570;2024-01-30T01:44:38;15.27;;;8.25;;
43640;SDS011;72791;52.546;13.570;2024-01-30T01:47:05;14.13;;;7.55;;
43640;SDS011;72791;52.546;13.570;2024-01-30T01:49:31;17.90;;;8.77;;
43640;SDS011;72791;52.546;13.570;2024-01-30T01:51:58;15.20;;;8.45;;
43640;SDS011;72791;52.546;13.570;2024-01-30T01:54:25;16.15;;;8.00;;
43640;SDS011;72791;52.546;13.570;2024-01-30T01:56:53;14.65;;;8.48;;
43640;SDS011;72791;52.546;13.570;2024-01-30T01:59:19;22.77;;;8.68;;
43640;SDS011;72791;52.546;13.570;2024-01-30T02:01:47;13.85;;;8.20;;
43640;SDS011;72791;52.546;13.570;2024-01-30T02:04:17;15.70;;;8.60;;
43640;SDS011;72791;52.546;13.570;2024-01-30T02:06:43;15.30;;;8.50;;
43640;SDS011;72791;52.546;13.570;2024-01-30T02:09:10;15.20;;;8.13;;
43640;SDS011;72791;52.546;13.570;2024-01-30T02:11:36;15.35;;;7.82;;
43640;SDS011;72791;52.546;13.570;2024-01-30T02:14:04;16.92;;;8.00;;
43640;SDS011;72791;52.546;13.570;2024-01-30T02:16:32;16.98;;;8.63;;
43640;SDS011;72791;52.546;13.570;2024-01-30T02:19:00;17.35;;;9.43;;
43640;SDS011;72791;52.546;13.570;2024-01-30T02:21:27;19.25;;;9.77;;
43640;SDS011;72791;52.546;13.570;2024-01-30T02:23:53;18.70;;;8.98;;
43640;SDS011;72791;52.546;13.570;2024-01-30T02:26:21;16.15;;;7.80;;
43640;SDS011;72791;52.546;13.570;2024-01-30T02:28:47;14.70;;;7.47;;
43640;SDS011;72791;52.546;13.570;2024-01-30T02:31:12;15.20;;;8.25;;
43640;SDS011;72791;52.546;13.570;2024-01-30T02:33:38;14.75;;;7.95;;
43640;SDS011;72791;52.546;13.570;2024-01-30T02:36:04;16.27;;;9.65;;
43640;SDS011;72791;52.546;13.570;2024-01-30T02:38:30;15.57;;;8.10;;
43640;SDS011;72791;52.546;13.570;2024-01-30T02:40:55;13.98;;;8.63;;
43640;SDS011;72791;52.546;13.570;2024-01-30T02:43:21;17.80;;;9.10;;
43640;SDS011;72791;52.546;13.570;2024-01-30T02:45:53;16.27;;;8.07;;
43640;SDS011;72791;52.546;13.570;2024-01-30T02:48:19;18.15;;;9.23;;
43640;SDS011;72791;52.546;13.570;2024-01-30T02:50:44;14.50;;;8.80;;
43640;SDS011;72791;52.546;13.570;2024-01-30T02:53:12;17.38;;;9.43;;
43640;SDS011;72791;52.546;13.570;2024-01-30T02:55:37;16.77;;;8.70;;
43640;SDS011;72791;52.546;13.570;2024-01-30T02:58:03;17.65;;;8.75;;
43640;SDS011;72791;52.546;13.570;2024-01-30T03:00:29;14.43;;;8.60;;
43640;SDS011;72791;52.546;13.570;2024-01-30T03:02:54;16.65;;;9.65;;
43640;SDS011;72791;52.546;13.570;2024-01-30T03:05:20;16.08;;;8.90;;
43640;SDS011;72791;52.546;13.570;2024-01-30T03:07:47;16.63;;;10.13;;
43640;SDS011;72791;52.546;13.570;2024-01-30T03:10:13;19.00;;;9.35;;
43640;SDS011;72791;52.546;13.570;2024-01-30T03:12:38;15.00;;;9.18;;
43640;SDS011;72791;52.546;13.570;2024-01-30T03:15:04;20.00;;;8.73;;
43640;SDS011;72791;52.546;13.570;2024-01-30T03:17:31;21.55;;;9.43;;
43640;SDS011;72791;52.546;13.570;2024-01-30T03:19:57;19.08;;;9.48;;
43640;SDS011;72791;52.546;13.570;2024-01-30T03:22:23;18.08;;;8.77;;
43640;SDS011;72791;52.546;13.570;2024-01-30T03:24:51;17.30;;;10.07;;
43640;SDS011;72791;52.546;13.570;2024-01-30T03:27:17;18.00;;;8.85;;
43640;SDS011;72791;52.546;13.570;2024-01-30T03:29:44;16.95;;;9.48;;
43640;SDS011;72791;52.546;13.570;2024-01-30T03:32:09;23.70;;;9.98;;
43640;SDS011;72791;52.546;13.570;2024-01-30T03:34:35;19.80;;;10.00;;
43640;SDS011;72791;52.546;13.570;2024-01-30T03:37:02;21.67;;;9.27;;
43640;SDS011;72791;52.546;13.570;2024-01-30T03:39:30;19.45;;;9.52;;
43640;SDS011;72791;52.546;13.570;2024-01-30T03:41:56;19.85;;;10.20;;
43640;SDS011;72791;52.546;13.570;2024-01-30T03:44:27;17.65;;;9.07;;
43640;SDS011;72791;52.546;13.570;2024-01-30T03:46:53;17.60;;;9.45;;
43640;SDS011;72791;52.546;13.570;2024-01-30T03:49:19;16.92;;;9.30;;
43640;SDS011;72791;52.546;13.570;2024-01-30T03:51:44;20.20;;;10.07;;
43640;SDS011;72791;52.546;13.570;2024-01-30T03:54:12;20.38;;;10.00;;
43640;SDS011;72791;52.546;13.570;2024-01-30T03:56:38;16.13;;;9.32;;
43640;SDS011;72791;52.546;13.570;2024-01-30T03:59:04;17.02;;;10.07;;
43640;SDS011;72791;52.546;13.570;2024-01-30T04:01:31;17.13;;;9.25;;
43640;SDS011;72791;52.546;13.570;2024-01-30T04:03:58;20.15;;;9.98;;
43640;SDS011;72791;52.546;13.570;2024-01-30T04:06:24;17.52;;;10.00;;
43640;SDS011;72791;52.546;13.570;2024-01-30T04:08:52;18.17;;;9.38;;
43640;SDS011;72791;52.546;13.570;2024-01-30T04:11:18;16.90;;;9.93;;
43640;SDS011;72791;52.546;13.570;2024-01-30T04:13:45;17.48;;;10.70;;
43640;SDS011;72791;52.546;13.570;2024-01-30T04:16:19;19.67;;;10.57;;
43640;SDS011;72791;52.546;13.570;2024-01-30T04:18:47;22.02;;;10.68;;
43640;SDS011;72791;52.546;13.570;2024-01-30T04:21:12;18.90;;;10.10;;
43640;SDS011;72791;52.546;13.570;2024-01-30T04:23:39;18.73;;;9.75;;
43640;SDS011;72791;52.546;13.570;2024-01-30T04:26:09;19.65;;;9.82;;
43640;SDS011;72791;52.546;13.570;2024-01-30T04:28:38;16.80;;;10.07;;
43640;SDS011;72791;52.546;13.570;2024-01-30T04:31:03;21.27;;;11.25;;
43640;SDS011;72791;52.546;13.570;2024-01-30T04:33:29;18.77;;;10.05;;
43640;SDS011;72791;52.546;13.570;2024-01-30T04:35:55;22.58;;;10.63;;
43640;SDS011;72791;52.546;13.570;2024-01-30T04:38:20;21.23;;;11.95;;
43640;SDS011;72791;52.546;13.570;2024-01-30T04:40:47;18.23;;;9.57;;
43640;SDS011;72791;52.546;13.570;2024-01-30T04:43:12;18.98;;;9.98;;
43640;SDS011;72791;52.546;13.570;2024-01-30T04:45:40;22.58;;;11.23;;
43640;SDS011;72791;52.546;13.570;2024-01-30T04:48:06;17.48;;;9.93;;
43640;SDS011;72791;52.546;13.570;2024-01-30T04:50:32;21.05;;;9.30;;
43640;SDS011;72791;52.546;13.570;2024-01-30T04:52:57;17.70;;;10.45;;
43640;SDS011;72791;52.546;13.570;2024-01-30T04:55:23;17.02;;;10.40;;
43640;SDS011;72791;52.546;13.570;2024-01-30T04:57:49;15.68;;;9.80;;
43640;SDS011;72791;52.546;13.570;2024-01-30T05:00:15;16.60;;;10.68;;
43640;SDS011;72791;52.546;13.570;2024-01-30T05:02:44;19.55;;;9.88;;
43640;SDS011;72791;52.546;13.570;2024-01-30T05:05:09;23.38;;;10.73;;
43640;SDS011;72791;52.546;13.570;2024-01-30T05:07:36;21.20;;;10.63;;
43640;SDS011;72791;52.546;13.570;2024-01-30T05:10:02;19.58;;;9.70;;
43640;SDS011;72791;52.546;13.570;2024-01-30T05:12:28;20.65;;;10.32;;
43640;SDS011;72791;52.546;13.570;2024-01-30T05:14:54;19.88;;;10.13;;
43640;SDS011;72791;52.546;13.570;2024-01-30T05:17:22;18.58;;;10.93;;
43640;SDS011;72791;52.546;13.570;2024-01-30T05:19:48;23.20;;;10.68;;
43640;SDS011;72791;52.546;13.570;2024-01-30T05:22:13;21.30;;;9.95;;
43640;SDS011;72791;52.546;13.570;2024-01-30T05:24:41;18.73;;;10.43;;
43640;SDS011;72791;52.546;13.570;2024-01-30T05:27:07;20.35;;;10.77;;
43640;SDS011;72791;52.546;13.570;2024-01-30T05:29:33;16.30;;;9.18;;
43640;SDS011;72791;52.546;13.570;2024-01-30T05:31:59;17.95;;;10.45;;
43640;SDS011;72791;52.546;13.570;2024-01-30T05:34:24;15.50;;;9.70;;
43640;SDS011;72791;52.546;13.570;2024-01-30T05:36:51;20.73;;;10.20;;
43640;SDS011;72791;52.546;13.570;2024-01-30T05:39:17;22.65;;;10.68;;
43640;SDS011;72791;52.546;13.570;2024-01-30T05:41:44;18.13;;;10.60;;
43640;SDS011;72791;52.546;13.570;2024-01-30T05:44:10;19.25;;;9.88;;
43640;SDS011;72791;52.546;13.570;2024-01-30T05:46:37;21.85;;;11.65;;
43640;SDS011;72791;52.546;13.570;2024-01-30T05:49:03;20.23;;;9.68;;
43640;SDS011;72791;52.546;13.570;2024-01-30T05:51:28;19.67;;;9.88;;
43640;SDS011;72791;52.546;13.570;2024-01-30T05:53:55;16.08;;;9.45;;
43640;SDS011;72791;52.546;13.570;2024-01-30T05:56:20;19.65;;;10.80;;
43640;SDS011;72791;52.546;13.570;2024-01-30T05:58:46;18.33;;;9.68;;
43640;SDS011;72791;52.546;13.570;2024-01-30T06:01:12;19.85;;;11.05;;
43640;SDS011;72791;52.546;13.570;2024-01-30T06:03:37;18.42;;;10.77;;
43640;SDS011;72791;52.546;13.570;2024-01-30T06:06:04;22.83;;;10.93;;
43640;SDS011;72791;52.546;13.570;2024-01-30T06:08:30;18.85;;;9.50;;
43640;SDS011;72791;52.546;13.570;2024-01-30T06:10:55;20.33;;;10.00;;
43640;SDS011;72791;52.546;13.570;2024-01-30T06:13:21;22.10;;;11.02;;
43640;SDS011;72791;52.546;13.570;2024-01-30T06:15:46;23.85;;;12.05;;
43640;SDS011;72791;52.546;13.570;2024-01-30T06:18:14;18.95;;;10.27;;
43640;SDS011;72791;52.546;13.570;2024-01-30T06:20:39;19.92;;;10.95;;
43640;SDS011;72791;52.546;13.570;2024-01-30T06:23:05;20.35;;;11.05;;
43640;SDS011;72791;52.546;13.570;2024-01-30T06:25:31;21.48;;;10.70;;
43640;SDS011;72791;52.546;13.570;2024-01-30T06:27:56;20.75;;;10.70;;
43640;SDS011;72791;52.546;13.570;2024-01-30T06:30:24;21.77;;;10.93;;
43640;SDS011;72791;52.546;13.570;2024-01-30T06:32:49;23.15;;;12.63;;
43640;SDS011;72791;52.546;13.570;2024-01-30T06:35:15;17.40;;;9.88;;
43640;SDS011;72791;52.546;13.570;2024-01-30T06:37:42;20.10;;;10.75;;
43640;SDS011;72791;52.546;13.570;2024-01-30T06:40:08;25.48;;;11.15;;
43640;SDS011;72791;52.546;13.570;2024-01-30T06:42:35;23.27;;;11.52;;
43640;SDS011;72791;52.546;13.570;2024-01-30T06:45:01;19.77;;;11.80;;
43640;SDS011;72791;52.546;13.570;2024-01-30T06:47:27;22.15;;;10.63;;
43640;SDS011;72791;52.546;13.570;2024-01-30T06:49:54;20.92;;;10.15;;
43640;SDS011;72791;52.546;13.570;2024-01-30T06:52:20;23.20;;;10.68;;
43640;SDS011;72791;52.546;13.570;2024-01-30T06:54:46;20.67;;;10.48;;
43640;SDS011;72791;52.546;13.570;2024-01-30T06:57:12;18.75;;;11.20;;
43640;SDS011;72791;52.546;13.570;2024-01-30T06:59:39;20.30;;;11.57;;
43640;SDS011;72791;52.546;13.570;2024-01-30T07:02:08;22.23;;;10.88;;
43640;SDS011;72791;52.546;13.570;2024-01-30T07:04:35;21.95;;;11.40;;
43640;SDS011;72791;52.546;13.570;2024-01-30T07:07:02;21.77;;;11.48;;
43640;SDS011;72791;52.546;13.570;2024-01-30T07:09:31;19.23;;;10.48;;
43640;SDS011;72791;52.546;13.570;2024-01-30T07:11:56;22.20;;;10.57;;
43640;SDS011;72791;52.546;13.570;2024-01-30T07:14:23;22.13;;;10.93;;
43640;SDS011;72791;52.546;13.570;2024-01-30T07:16:50;22.48;;;10.70;;
43640;SDS011;72791;52.546;13.570;2024-01-30T07:19:17;17.90;;;10.43;;
43640;SDS011;72791;52.546;13.570;2024-01-30T07:21:42;23.02;;;11.05;;
43640;SDS011;72791;52.546;13.570;2024-01-30T07:24:09;20.85;;;10.77;;
43640;SDS011;72791;52.546;13.570;2024-01-30T07:26:35;22.30;;;11.25;;
43640;SDS011;72791;52.546;13.570;2024-01-30T07:29:00;20.20;;;10.30;;
43640;SDS011;72791;52.546;13.570;2024-01-30T07:31:26;21.23;;;10.80;;
43640;SDS011;72791;52.546;13.570;2024-01-30T07:33:52;20.80;;;11.77;;
43640;SDS011;72791;52.546;13.570;2024-01-30T07:36:19;17.45;;;10.35;;
43640;SDS011;72791;52.546;13.570;2024-01-30T07:38:46;23.20;;;12.57;;
43640;SDS011;72791;52.546;13.570;2024-01-30T07:41:11;23.40;;;11.73;;
43640;SDS011;72791;52.546;13.570;2024-01-30T07:43:38;19.73;;;10.30;;
43640;SDS011;72791;52.546;13.570;2024-01-30T07:46:04;21.67;;;10.75;;
43640;SDS011;72791;52.546;13.570;2024-01-30T07:48:37;20.55;;;10.00;;
43640;SDS011;72791;52.546;13.570;2024-01-30T07:51:04;20.55;;;10.82;;
43640;SDS011;72791;52.546;13.570;2024-01-30T07:53:30;19.25;;;9.95;;
43640;SDS011;72791;52.546;13.570;2024-01-30T07:55:56;23.40;;;10.60;;
43640;SDS011;72791;52.546;13.570;2024-01-30T07:58:21;20.73;;;11.05;;
43640;SDS011;72791;52.546;13.570;2024-01-30T08:00:49;20.63;;;10.13;;
43640;SDS011;72791;52.546;13.570;2024-01-30T08:03:16;20.65;;;10.27;;
43640;SDS011;72791;52.546;13.570;2024-01-30T08:05:43;22.33;;;9.88;;
43640;SDS011;72791;52.546;13.570;2024-01-30T08:08:09;15.70;;;9.88;;
43640;SDS011;72791;52.546;13.570;2024-01-30T08:10:35;23.08;;;10.75;;
43640;SDS011;72791;52.546;13.570;2024-01-30T08:13:01;18.48;;;10.57;;
43640;SDS011;72791;52.546;13.570;2024-01-30T08:15:27;20.17;;;10.50;;
43640;SDS011;72791;52.546;13.570;2024-01-30T08:17:55;19.23;;;9.95;;
43640;SDS011;72791;52.546;13.570;2024-01-30T08:20:26;18.23;;;8.50;;
43640;SDS011;72791;52.546;13.570;2024-01-30T08:22:52;20.52;;;10.65;;
43640;SDS011;72791;52.546;13.570;2024-01-30T08:25:19;18.33;;;10.18;;
43640;SDS011;72791;52.546;13.570;2024-01-30T08:27:46;18.20;;;9.88;;
43640;SDS011;72791;52.546;13.570;2024-01-30T08:30:11;20.42;;;10.45;;
43640;SDS011;72791;52.546;13.570;2024-01-30T08:32:37;26.90;;;11.02;;
43640;SDS011;72791;52.546;13.570;2024-01-30T08:35:03;24.63;;;10.60;;
43640;SDS011;72791;52.546;13.570;2024-01-30T08:37:29;22.20;;;10.80;;
43640;SDS011;72791;52.546;13.570;2024-01-30T08:39:55;22.13;;;11.10;;
43640;SDS011;72791;52.546;13.570;2024-01-30T08:42:21;19.70;;;10.90;;
43640;SDS011;72791;52.546;13.570;2024-01-30T08:44:51;24.38;;;11.85;;
43640;SDS011;72791;52.546;13.570;2024-01-30T08:47:18;25.65;;;11.65;;
43640;SDS011;72791;52.546;13.570;2024-01-30T08:49:44;23.77;;;11.23;;
43640;SDS011;72791;52.546;13.570;2024-01-30T08:52:13;22.00;;;11.45;;
43640;SDS011;72791;52.546;13.570;2024-01-30T08:54:38;21.27;;;11.05;;
43640;SDS011;72791;52.546;13.570;2024-01-30T08:57:04;22.60;;;12.02;;
43640;SDS011;72791;52.546;13.570;2024-01-30T08:59:30;17.73;;;10.27;;
43640;SDS011;72791;52.546;13.570;2024-01-30T09:01:56;23.15;;;11.07;;
43640;SDS011;72791;52.546;13.570;2024-01-30T09:04:23;20.33;;;10.90;;
43640;SDS011;72791;52.546;13.570;2024-01-30T09:06:49;19.55;;;10.55;;
43640;SDS011;72791;52.546;13.570;2024-01-30T09:09:15;23.35;;;10.25;;
43640;SDS011;72791;52.546;13.570;2024-01-30T09:11:41;24.13;;;10.38;;
43640;SDS011;72791;52.546;13.570;2024-01-30T09:14:07;17.73;;;10.27;;
43640;SDS011;72791;52.546;13.570;2024-01-30T09:16:32;18.52;;;9.32;;
43640;SDS011;72791;52.546;13.570;2024-01-30T09:18:59;22.23;;;9.85;;
43640;SDS011;72791;52.546;13.570;2024-01-30T09:21:26;20.88;;;10.48;;
43640;SDS011;72791;52.546;13.570;2024-01-30T09:23:54;24.23;;;10.70;;
43640;SDS011;72791;52.546;13.570;2024-01-30T09:26:21;20.10;;;11.75;;
43640;SDS011;72791;52.546;13.570;2024-01-30T09:28:47;21.17;;;10.07;;
43640;SDS011;72791;52.546;13.570;2024-01-30T09:31:13;21.75;;;11.10;;
43640;SDS011;72791;52.546;13.570;2024-01-30T09:33:38;17.13;;;9.90;;
43640;SDS011;72791;52.546;13.570;2024-01-30T09:36:05;17.10;;;10.48;;
43640;SDS011;72791;52.546;13.570;2024-01-30T09:38:50;20.85;;;10.88;;
43640;SDS011;72791;52.546;13.570;2024-01-30T09:41:16;21.73;;;11.05;;
43640;SDS011;72791;52.546;13.570;2024-01-30T09:43:47;21.80;;;11.27;;
43640;SDS011;72791;52.546;13.570;2024-01-30T09:46:18;15.82;;;10.05;;
43640;SDS011;72791;52.546;13.570;2024-01-30T09:48:48;19.77;;;10.75;;
43640;SDS011;72791;52.546;13.570;2024-01-30T09:51:14;19.40;;;10.60;;
43640;SDS011;72791;52.546;13.570;2024-01-30T09:53:42;18.42;;;9.90;;
43640;SDS011;72791;52.546;13.570;2024-01-30T09:56:12;19.30;;;10.15;;
43640;SDS011;72791;52.546;13.570;2024-01-30T09:58:38;18.00;;;10.30;;
43640;SDS011;72791;52.546;13.570;2024-01-30T10:01:05;21.75;;;11.02;;
43640;SDS011;72791;52.546;13.570;2024-01-30T10:03:32;18.40;;;9.95;;
43640;SDS011;72791;52.546;13.570;2024-01-30T10:05:58;18.27;;;10.23;;
43640;SDS011;72791;52.546;13.570;2024-01-30T10:08:26;19.35;;;9.88;;
43640;SDS011;72791;52.546;13.570;2024-01-30T10:10:52;15.80;;;9.80;;
43640;SDS011;72791;52.546;13.570;2024-01-30T10:13:19;24.27;;;10.77;;
43640;SDS011;72791;52.546;13.570;2024-01-30T10:15:50;15.00;;;9.65;;
43640;SDS011;72791;52.546;13.570;2024-01-30T10:18:17;24.67;;;10.68;;
43640;SDS011;72791;52.546;13.570;2024-01-30T10:20:47;19.83;;;9.93;;
43640;SDS011;72791;52.546;13.570;2024-01-30T10:23:13;26.35;;;13.38;;
43640;SDS011;72791;52.546;13.570;2024-01-30T10:25:42;19.05;;;10.52;;
43640;SDS011;72791;52.546;13.570;2024-01-30T10:28:07;19.30;;;10.55;;
43640;SDS011;72791;52.546;13.570;2024-01-30T10:30:33;19.13;;;9.98;;
43640;SDS011;72791;52.546;13.570;2024-01-30T10:32:59;20.38;;;10.75;;
43640;SDS011;72791;52.546;13.570;2024-01-30T10:35:25;23.42;;;10.50;;
43640;SDS011;72791;52.546;13.570;2024-01-30T10:37:52;16.27;;;9.35;;
43640;SDS011;72791;52.546;13.570;2024-01-30T10:40:22;16.63;;;9.23;;
43640;SDS011;72791;52.546;13.570;2024-01-30T10:42:55;16.63;;;9.45;;
43640;SDS011;72791;52.546;13.570;2024-01-30T10:45:24;16.90;;;9.75;;
43640;SDS011;72791;52.546;13.570;2024-01-30T10:47:53;16.50;;;9.02;;
43640;SDS011;72791;52.546;13.570;2024-01-30T10:50:23;15.88;;;9.90;;
43640;SDS011;72791;52.546;13.570;2024-01-30T10:52:50;17.88;;;9.07;;
43640;SDS011;72791;52.546;13.570;2024-01-30T10:55:16;18.45;;;8.52;;
43640;SDS011;72791;52.546;13.570;2024-01-30T10:57:44;19.45;;;9.25;;
43640;SDS011;72791;52.546;13.570;2024-01-30T11:00:11;14.88;;;8.98;;
43640;SDS011;72791;52.546;13.570;2024-01-30T11:02:43;17.60;;;8.77;;
43640;SDS011;72791;52.546;13.570;2024-01-30T11:05:10;15.15;;;8.95;;
43640;SDS011;72791;52.546;13.570;2024-01-30T11:07:38;15.68;;;8.07;;
43640;SDS011;72791;52.546;13.570;2024-01-30T11:10:04;14.63;;;7.90;;
43640;SDS011;72791;52.546;13.570;2024-01-30T11:12:37;15.88;;;8.15;;
43640;SDS011;72791;52.546;13.570;2024-01-30T11:15:15;15.00;;;8.00;;
43640;SDS011;72791;52.546;13.570;2024-01-30T11:20:19;14.63;;;8.30;;
43640;SDS011;72791;52.546;13.570;2024-01-30T11:23:02;14.05;;;8.13;;
43640;SDS011;72791;52.546;13.570;2024-01-30T11:25:31;15.85;;;7.60;;
43640;SDS011;72791;52.546;13.570;2024-01-30T11:27:59;11.55;;;7.50;;
43640;SDS011;72791;52.546;13.570;2024-01-30T11:30:29;13.77;;;7.00;;
43640;SDS011;72791;52.546;13.570;2024-01-30T11:33:05;12.77;;;7.25;;
43640;SDS011;72791;52.546;13.570;2024-01-30T11:35:35;11.68;;;6.57;;
43640;SDS011;72791;52.546;13.570;2024-01-30T11:38:02;9.57;;;5.65;;
43640;SDS011;72791;52.546;13.570;2024-01-30T11:40:29;11.27;;;6.85;;
43640;SDS011;72791;52.546;13.570;2024-01-30T11:42:55;15.60;;;6.30;;
43640;SDS011;72791;52.546;13.570;2024-01-30T11:45:23;12.48;;;6.93;;
43640;SDS011;72791;52.546;13.570;2024-01-30T11:47:49;10.73;;;6.40;;
43640;SDS011;72791;52.546;13.570;2024-01-30T11:50:18;11.60;;;6.90;;
43640;SDS011;72791;52.546;13.570;2024-01-30T11:52:43;15.65;;;7.43;;
43640;SDS011;72791;52.546;13.570;2024-01-30T11:55:13;12.10;;;6.40;;
43640;SDS011;72791;52.546;13.570;2024-01-30T11:57:39;13.02;;;6.93;;
43640;SDS011;72791;52.546;13.570;2024-01-30T12:00:06;15.80;;;7.63;;
43640;SDS011;72791;52.546;13.570;2024-01-30T12:02:43;15.05;;;6.50;;
43640;SDS011;72791;52.546;13.570;2024-01-30T12:05:18;11.02;;;6.20;;
43640;SDS011;72791;52.546;13.570;2024-01-30T12:07:45;10.48;;;6.50;;
43640;SDS011;72791;52.546;13.570;2024-01-30T12:10:14;11.00;;;6.60;;
43640;SDS011;72791;52.546;13.570;2024-01-30T12:12:41;13.68;;;6.40;;
43640;SDS011;72791;52.546;13.570;2024-01-30T12:15:09;16.02;;;6.63;;
43640;SDS011;72791;52.546;13.570;2024-01-30T12:17:35;11.00;;;6.95;;
43640;SDS011;72791;52.546;13.570;2024-01-30T12:22:44;11.25;;;7.40;;
43640;SDS011;72791;52.546;13.570;2024-01-30T12:25:11;13.93;;;6.85;;
43640;SDS011;72791;52.546;13.570;2024-01-30T12:27:41;11.63;;;6.57;;
43640;SDS011;72791;52.546;13.570;2024-01-30T12:30:10;13.38;;;6.50;;
43640;SDS011;72791;52.546;13.570;2024-01-30T12:32:43;11.95;;;6.90;;
43640;SDS011;72791;52.546;13.570;2024-01-30T12:35:17;14.00;;;7.22;;
43640;SDS011;72791;52.546;13.570;2024-01-30T12:37:45;10.05;;;6.60;;
43640;SDS011;72791;52.546;13.570;2024-01-30T12:40:11;9.80;;;6.15;;
43640;SDS011;72791;52.546;13.570;2024-01-30T12:42:40;13.15;;;7.40;;
43640;SDS011;72791;52.546;13.570;2024-01-30T12:45:09;13.07;;;7.07;;
43640;SDS011;72791;52.546;13.570;2024-01-30T12:47:36;12.88;;;7.63;;
43640;SDS011;72791;52.546;13.570;2024-01-30T12:50:02;13.30;;;6.85;;
43640;SDS011;72791;52.546;13.570;2024-01-30T12:52:28;13.85;;;7.05;;
43640;SDS011;72791;52.546;13.570;2024-01-30T12:54:54;17.80;;;7.50;;
43640;SDS011;72791;52.546;13.570;2024-01-30T12:57:20;16.23;;;7.10;;
43640;SDS011;72791;52.546;13.570;2024-01-30T12:59:46;15.52;;;7.75;;
43640;SDS011;72791;52.546;13.570;2024-01-30T13:02:12;15.13;;;8.40;;
43640;SDS011;72791;52.546;13.570;2024-01-30T13:04:39;14.63;;;7.30;;
43640;SDS011;72791;52.546;13.570;2024-01-30T13:07:05;17.23;;;7.55;;
43640;SDS011;72791;52.546;13.570;2024-01-30T13:09:31;11.80;;;7.50;;
43640;SDS011;72791;52.546;13.570;2024-01-30T13:11:57;13.60;;;7.30;;
43640;SDS011;72791;52.546;13.570;2024-01-30T13:14:24;13.52;;;7.15;;
43640;SDS011;72791;52.546;13.570;2024-01-30T13:16:51;15.05;;;8.55;;
43640;SDS011;72791;52.546;13.570;2024-01-30T13:19:18;14.95;;;7.10;;
43640;SDS011;72791;52.546;13.570;2024-01-30T13:21:44;13.95;;;7.50;;
43640;SDS011;72791;52.546;13.570;2024-01-30T13:24:09;11.80;;;7.45;;
43640;SDS011;72791;52.546;13.570;2024-01-30T13:26:36;13.18;;;7.97;;
43640;SDS011;72791;52.546;13.570;2024-01-30T13:29:03;14.90;;;7.97;;
43640;SDS011;72791;52.546;13.570;2024-01-30T13:31:36;11.48;;;7.10;;
43640;SDS011;72791;52.546;13.570;2024-01-30T13:34:04;11.50;;;7.65;;
43640;SDS011;72791;52.546;13.570;2024-01-30T13:36:33;14.05;;;7.28;;
43640;SDS011;72791;52.546;13.570;2024-01-30T13:38:59;13.65;;;7.85;;
43640;SDS011;72791;52.546;13.570;2024-01-30T13:41:25;13.02;;;7.55;;
43640;SDS011;72791;52.546;13.570;2024-01-30T13:43:51;15.40;;;7.13;;
43640;SDS011;72791;52.546;13.570;2024-01-30T13:46:17;18.23;;;10.50;;
43640;SDS011;72791;52.546;13.570;2024-01-30T13:48:42;13.70;;;8.52;;
43640;SDS011;72791;52.546;13.570;2024-01-30T13:51:08;16.80;;;7.97;;
43640;SDS011;72791;52.546;13.570;2024-01-30T13:53:34;14.35;;;7.20;;
43640;SDS011;72791;52.546;13.570;2024-01-30T13:56:00;13.85;;;7.53;;
43640;SDS011;72791;52.546;13.570;2024-01-30T13:58:26;14.88;;;7.30;;
43640;SDS011;72791;52.546;13.570;2024-01-30T14:00:52;17.60;;;7.45;;
43640;SDS011;72791;52.546;13.570;2024-01-30T14:03:18;11.80;;;6.97;;
43640;SDS011;72791;52.546;13.570;2024-01-30T14:05:44;11.55;;;7.20;;
43640;SDS011;72791;52.546;13.570;2024-01-30T14:08:09;12.20;;;7.50;;
43640;SDS011;72791;52.546;13.570;2024-01-30T14:10:37;15.07;;;7.20;;
43640;SDS011;72791;52.546;13.570;2024-01-30T14:13:04;13.35;;;8.02;;
43640;SDS011;72791;52.546;13.570;2024-01-30T14:15:30;13.93;;;7.43;;
43640;SDS011;72791;52.546;13.570;2024-01-30T14:17:55;20.00;;;8.43;;
43640;SDS011;72791;52.546;13.570;2024-01-30T14:20:22;13.77;;;7.93;;